Time;durP1;ratioP1;P1;durP2;ratioP2;P2;SDS_P1;SDS_P2;PMS_P1;PMS_P2;Temp;Humidity;BMP_temperature;BMP_pressure;BME280_temperature;BME280_humidity;BME280_pressure;Samples;Min_cycle;Max_cycle;Signal;HPM_P1;HPM_P2
2023/11/11 00:00:28;;;;;;;3.85;1.40;;;;;;;19.56;47.47;99898.03;5022035;28;20476;-68
2023/11/11 00:02:55;;;;;;;4.32;1.20;;;;;;;19.55;47.12;99908.75;5021209;28;20400;-68
2023/11/11 00:05:22;;;;;;;4.82;1.38;;;;;;;19.53;47.25;99906.25;5020691;28;20386;-68
2023/11/11 00:07:47;;;;;;;3.33;1.40;;;;;;;19.53;47.21;99908.09;5021558;28;20030;-69
2023/11/11 00:10:13;;;;;;;3.25;1.45;;;;;;;19.51;47.28;99912.72;5020879;28;20734;-69
2023/11/11 00:12:38;;;;;;;3.80;1.50;;;;;;;19.50;47.22;99906.59;5021926;28;20452;-69
2023/11/11 00:15:04;;;;;;;3.45;1.48;;;;;;;19.50;46.96;99913.69;5020909;28;20127;-68
2023/11/11 00:17:30;;;;;;;3.28;1.40;;;;;;;19.48;47.05;99907.72;5020869;28;20473;-69
2023/11/11 00:19:59;;;;;;;3.83;1.50;;;;;;;19.47;46.97;99914.84;5016526;28;20045;-69
2023/11/11 00:22:24;;;;;;;3.05;1.45;;;;;;;19.47;46.93;99916.63;5021477;28;20182;-68
2023/11/11 00:24:49;;;;;;;3.65;1.30;;;;;;;19.44;46.89;99915.16;5020215;28;20078;-68
2023/11/11 00:27:16;;;;;;;3.70;1.40;;;;;;;19.45;46.61;99924.72;5021226;28;20485;-68
2023/11/11 00:29:41;;;;;;;3.80;1.50;;;;;;;19.42;46.53;99935.59;5021005;28;20290;-68
2023/11/11 00:32:07;;;;;;;3.17;1.42;;;;;;;19.41;46.75;99928.66;5020303;28;20040;-68
2023/11/11 00:34:32;;;;;;;2.80;1.30;;;;;;;19.41;46.70;99939.25;5021568;28;20034;-68
2023/11/11 00:36:58;;;;;;;2.50;1.25;;;;;;;19.37;46.63;99935.22;5003257;28;20033;-67
2023/11/11 00:39:24;;;;;;;2.78;1.20;;;;;;;19.38;46.71;99936.91;5020325;28;20033;-67
2023/11/11 00:41:49;;;;;;;2.83;1.27;;;;;;;19.38;46.51;99931.63;5003111;28;20048;-68
2023/11/11 00:44:14;;;;;;;4.50;1.13;;;;;;;19.37;46.57;99943.16;5021085;28;20065;-68
2023/11/11 00:46:40;;;;;;;3.55;1.30;;;;;;;19.36;46.54;99947.63;5020415;28;20026;-68
2023/11/11 00:49:07;;;;;;;4.00;1.95;;;;;;;19.35;46.39;99953.06;5020732;28;20041;-68
2023/11/11 00:51:39;;;;;;;2.90;1.30;;;;;;;19.33;46.39;99952.41;5018076;28;20371;-67
2023/11/11 00:54:06;;;;;;;2.67;1.20;;;;;;;19.33;46.27;99953.22;5020652;28;20045;-68
2023/11/11 00:56:31;;;;;;;2.35;1.10;;;;;;;19.33;46.21;99958.50;5002861;28;20088;-69
2023/11/11 00:58:57;;;;;;;2.88;1.30;;;;;;;19.31;46.11;99957.84;5014848;28;20076;-68
2023/11/11 01:01:23;;;;;;;3.25;1.13;;;;;;;19.30;46.17;99972.00;5007021;28;20462;-68
2023/11/11 01:03:48;;;;;;;3.63;1.17;;;;;;;19.29;46.29;99970.34;5010155;28;20030;-68
2023/11/11 01:06:14;;;;;;;2.85;1.00;;;;;;;19.29;46.30;99966.88;5004572;28;20452;-68
2023/11/11 01:08:40;;;;;;;4.00;1.15;;;;;;;19.28;46.40;99955.50;5014759;28;20037;-67
2023/11/11 01:11:08;;;;;;;2.33;1.00;;;;;;;19.27;45.93;99974.97;5020414;28;20040;-69
2023/11/11 01:13:34;;;;;;;2.97;1.15;;;;;;;19.26;46.29;99962.72;5012832;28;20022;-68
2023/11/11 01:16:00;;;;;;;2.08;0.93;;;;;;;19.26;46.10;99965.38;5017193;28;20444;-68
2023/11/11 01:18:30;;;;;;;2.45;1.00;;;;;;;19.24;46.37;99972.63;5020298;28;20044;-68
2023/11/11 01:21:02;;;;;;;2.08;0.82;;;;;;;19.23;46.40;99973.59;5013537;28;20030;-69
2023/11/11 01:23:33;;;;;;;2.90;1.00;;;;;;;19.24;45.89;99979.72;5002116;28;20037;-68
2023/11/11 01:25:59;;;;;;;3.15;1.10;;;;;;;19.21;46.21;99979.03;5002917;28;20029;-69
2023/11/11 01:28:25;;;;;;;3.22;1.27;;;;;;;19.22;45.93;99985.16;5000132;28;20026;-69
2023/11/11 01:30:51;;;;;;;2.63;1.13;;;;;;;19.21;45.80;100001.97;5000426;28;20409;-69
2023/11/11 01:33:17;;;;;;;2.75;0.90;;;;;;;19.21;46.26;99999.34;5001667;28;20065;-68
2023/11/11 01:35:42;;;;;;;2.30;0.90;;;;;;;19.21;46.11;100001.97;5007992;28;20484;-69
2023/11/11 01:38:08;;;;;;;3.33;1.25;;;;;;;19.20;46.04;100014.38;5006618;28;20037;-69
2023/11/11 01:40:33;;;;;;;2.22;1.00;;;;;;;19.19;45.86;100010.06;5016050;28;20069;-69
2023/11/11 01:43:00;;;;;;;4.00;1.02;;;;;;;19.19;45.97;100007.41;5011025;28;20331;-68
2023/11/11 01:45:27;;;;;;;3.50;1.10;;;;;;;19.17;46.13;100004.09;5013182;28;20204;-68
2023/11/11 01:47:53;;;;;;;2.65;1.00;;;;;;;19.16;45.87;100013.00;4998509;28;20547;-69
2023/11/11 01:50:19;;;;;;;2.75;0.90;;;;;;;19.16;46.15;100012.19;5008126;28;20033;-69
2023/11/11 01:52:44;;;;;;;2.63;0.80;;;;;;;19.16;45.81;100005.06;5000020;28;20042;-68
2023/11/11 01:55:09;;;;;;;2.50;1.00;;;;;;;19.16;45.87;100012.19;5011094;28;20067;-69
2023/11/11 01:57:35;;;;;;;2.10;1.25;;;;;;;19.14;45.75;100014.97;5019976;28;20102;-69
2023/11/11 02:00:05;;;;;;;3.10;1.17;;;;;;;19.13;45.87;100008.03;5018437;28;20340;-69
2023/11/11 02:02:31;;;;;;;3.17;0.80;;;;;;;19.13;45.83;100010.66;5016909;28;20061;-69
2023/11/11 02:04:57;;;;;;;3.22;0.80;;;;;;;19.12;45.96;100010.81;5019608;28;20069;-67
2023/11/11 02:07:22;;;;;;;2.85;0.90;;;;;;;19.12;46.01;100013.44;5013165;28;20542;-68
2023/11/11 02:09:48;;;;;;;1.83;0.80;;;;;;;19.11;45.76;100028.47;4999216;28;20433;-68
2023/11/11 02:12:14;;;;;;;1.90;0.70;;;;;;;19.11;45.78;100023.19;5011292;28;20044;-68
2023/11/11 02:14:40;;;;;;;3.00;0.90;;;;;;;19.11;45.78;100027.66;5009821;28;20119;-68
2023/11/11 02:17:05;;;;;;;1.83;0.70;;;;;;;19.10;45.75;100024.16;5014665;28;20121;-68
2023/11/11 02:19:30;;;;;;;2.17;0.80;;;;;;;19.08;45.70;100033.22;5000834;28;20061;-68
2023/11/11 02:21:56;;;;;;;2.67;0.80;;;;;;;19.08;45.81;100026.13;5011035;28;20099;-68
2023/11/11 02:24:23;;;;;;;3.40;0.80;;;;;;;19.08;45.77;100022.66;5011159;28;20069;-68
2023/11/11 02:26:49;;;;;;;1.63;0.85;;;;;;;19.06;45.73;100014.91;5006074;28;20041;-68
2023/11/11 02:29:14;;;;;;;2.78;0.75;;;;;;;19.06;45.68;100020.19;5005177;28;20026;-68
2023/11/11 02:31:40;;;;;;;2.33;0.87;;;;;;;19.05;45.68;100020.34;5009472;28;20040;-69
2023/11/11 02:34:05;;;;;;;3.30;0.80;;;;;;;19.05;45.75;100033.53;5011193;28;20834;-69
2023/11/11 02:36:30;;;;;;;1.67;0.70;;;;;;;19.05;45.69;100037.00;5019732;28;20064;-68
2023/11/11 02:38:56;;;;;;;1.63;0.70;;;;;;;19.04;45.60;100037.97;5006484;28;20410;-68
2023/11/11 02:41:21;;;;;;;2.93;0.87;;;;;;;19.04;45.74;100035.31;4999863;28;20146;-68
2023/11/11 02:43:46;;;;;;;2.20;0.73;;;;;;;19.02;45.73;100043.41;5016578;28;20730;-68
2023/11/11 02:46:11;;;;;;;2.80;0.88;;;;;;;19.02;45.62;100045.22;5015888;28;20787;-68
2023/11/11 02:48:37;;;;;;;2.15;0.70;;;;;;;19.02;45.89;100039.94;5015543;28;20145;-68
2023/11/11 02:51:03;;;;;;;1.88;0.73;;;;;;;18.99;45.37;100041.09;5008831;28;20526;-69
2023/11/11 02:53:28;;;;;;;1.88;0.70;;;;;;;18.99;45.41;100045.50;5002357;28;20494;-69
2023/11/11 02:55:54;;;;;;;1.90;0.75;;;;;;;18.98;45.68;100055.25;5001645;28;20497;-67
2023/11/11 02:58:19;;;;;;;1.48;0.55;;;;;;;18.99;45.47;100058.72;5009249;28;20520;-68
2023/11/11 03:00:45;;;;;;;2.75;0.63;;;;;;;18.98;45.45;100062.34;5014872;28;20037;-67
2023/11/11 03:03:10;;;;;;;2.75;0.70;;;;;;;18.97;45.60;100074.72;4998175;28;20030;-68
2023/11/11 03:05:35;;;;;;;1.98;0.57;;;;;;;18.97;45.43;100087.09;5002798;28;20133;-68
2023/11/11 03:08:01;;;;;;;2.40;0.60;;;;;;;18.95;45.61;100083.78;5010862;28;20556;-69
2023/11/11 03:10:27;;;;;;;1.92;0.60;;;;;;;18.96;45.57;100091.53;5007949;28;20033;-68
2023/11/11 03:12:52;;;;;;;3.33;0.65;;;;;;;18.95;45.60;100092.50;5018273;28;20500;-68
2023/11/11 03:15:18;;;;;;;1.70;0.60;;;;;;;18.94;45.39;100090.03;5010278;28;20038;-69
2023/11/11 03:17:45;;;;;;;3.15;0.70;;;;;;;18.93;45.53;100088.34;5004444;28;20030;-69
2023/11/11 03:20:11;;;;;;;4.00;0.80;;;;;;;18.95;45.58;100099.63;5009495;28;20056;-68
2023/11/11 03:22:37;;;;;;;2.67;0.68;;;;;;;18.91;45.48;100096.41;5003838;28;20363;-67
2023/11/11 03:25:03;;;;;;;1.35;0.57;;;;;;;18.93;45.65;100102.41;5001235;28;20545;-68
2023/11/11 03:27:29;;;;;;;1.83;0.60;;;;;;;18.93;45.72;100107.69;5002112;28;20053;-67
2023/11/11 03:29:54;;;;;;;3.92;0.80;;;;;;;18.92;45.63;100108.66;5012947;28;20084;-67
2023/11/11 03:32:19;;;;;;;2.05;0.80;;;;;;;18.92;45.42;100108.66;5006809;28;20037;-67
2023/11/11 03:34:44;;;;;;;1.75;0.57;;;;;;;18.92;45.42;100099.91;4999595;28;20026;-66
2023/11/11 03:37:10;;;;;;;2.63;0.67;;;;;;;18.85;45.52;100092.56;5005587;28;20033;-68
2023/11/11 03:39:35;;;;;;;3.15;0.80;;;;;;;18.89;45.56;100101.03;5000271;28;20256;-68
2023/11/11 03:42:01;;;;;;;1.77;0.80;;;;;;;18.90;45.47;100113.25;5019160;28;20036;-69
2023/11/11 03:44:26;;;;;;;1.95;0.57;;;;;;;18.91;45.61;100106.16;5011642;28;20041;-69
2023/11/11 03:46:51;;;;;;;1.98;0.70;;;;;;;18.89;45.64;100108.13;5021662;28;20084;-68
2023/11/11 03:49:17;;;;;;;1.40;0.50;;;;;;;18.90;45.52;100115.91;5021680;28;20069;-68
2023/11/11 03:51:42;;;;;;;2.28;0.70;;;;;;;18.90;45.60;100117.69;5006548;28;20283;-69
2023/11/11 03:54:07;;;;;;;3.22;0.85;;;;;;;18.90;45.55;100121.19;5004672;28;20401;-69
2023/11/11 03:56:33;;;;;;;1.87;0.50;;;;;;;18.90;45.56;100121.19;5014459;28;20513;-68
2023/11/11 03:58:58;;;;;;;2.40;0.50;;;;;;;18.90;45.08;100125.59;5021361;28;20302;-69
2023/11/11 04:01:24;;;;;;;1.08;0.60;;;;;;;18.89;45.49;100124.78;5021362;28;20034;-69
2023/11/11 04:03:50;;;;;;;1.38;0.50;;;;;;;18.89;45.60;100127.44;5004063;28;20037;-68
2023/11/11 04:06:15;;;;;;;2.83;0.65;;;;;;;18.88;45.43;100127.56;5021908;28;20056;-69
2023/11/11 04:08:41;;;;;;;1.90;0.70;;;;;;;18.88;45.36;100132.84;5020937;28;20304;-69
2023/11/11 04:11:07;;;;;;;2.10;0.70;;;;;;;18.87;45.30;100134.66;5021646;28;20124;-69
2023/11/11 04:13:40;;;;;;;1.85;0.60;;;;;;;18.87;45.56;100141.75;5021623;28;20036;-69
2023/11/11 04:16:06;;;;;;;2.40;0.70;;;;;;;18.86;45.32;100138.28;5020094;28;20025;-69
2023/11/11 04:18:33;;;;;;;1.23;0.80;;;;;;;18.85;45.33;100144.56;5021876;28;20049;-69
2023/11/11 04:21:00;;;;;;;1.60;0.47;;;;;;;18.84;45.33;100143.69;5021409;28;20034;-68
2023/11/11 04:23:26;;;;;;;1.45;0.50;;;;;;;18.85;45.26;100149.84;5021091;28;20079;-69
2023/11/11 04:25:53;;;;;;;2.17;0.70;;;;;;;18.84;44.85;100154.25;5021064;28;20025;-69
2023/11/11 04:28:19;;;;;;;2.08;0.57;;;;;;;18.83;45.12;100157.88;5021791;28;20040;-69
2023/11/11 04:30:45;;;;;;;1.67;0.60;;;;;;;18.83;44.95;100155.22;5020393;28;20037;-69
2023/11/11 04:33:10;;;;;;;2.17;0.55;;;;;;;18.83;45.06;100160.50;5021450;28;20090;-69
2023/11/11 04:35:35;;;;;;;1.17;0.50;;;;;;;18.82;45.11;100158.00;5021523;28;20501;-69
2023/11/11 04:38:00;;;;;;;1.45;0.50;;;;;;;18.82;45.09;100168.56;5020309;28;20262;-69
2023/11/11 04:40:25;;;;;;;1.75;0.60;;;;;;;18.82;45.18;100173.84;5021228;28;20061;-69
2023/11/11 04:42:53;;;;;;;3.83;0.73;;;;;;;18.82;44.69;100173.84;5020742;28;20037;-68
2023/11/11 04:45:18;;;;;;;0.93;0.50;;;;;;;18.80;44.89;100174.00;5020240;28;20045;-68
2023/11/11 04:47:43;;;;;;;1.90;0.60;;;;;;;18.80;44.71;100176.63;5021160;28;20189;-68
2023/11/11 04:50:09;;;;;;;1.30;0.55;;;;;;;18.80;44.96;100183.72;5002836;28;20034;-68
2023/11/11 04:52:35;;;;;;;2.55;0.73;;;;;;;18.79;45.05;100176.78;5000442;28;20485;-69
2023/11/11 04:55:00;;;;;;;2.08;0.60;;;;;;;18.77;44.92;100174.28;5020557;28;20041;-69
2023/11/11 04:57:26;;;;;;;2.17;0.52;;;;;;;18.76;44.83;100177.06;5020322;28;20356;-69
2023/11/11 04:59:51;;;;;;;4.68;0.95;;;;;;;18.76;44.82;100174.44;5006820;28;20030;-69
2023/11/11 05:02:16;;;;;;;2.05;0.70;;;;;;;18.75;44.53;100189.41;5012367;28;20524;-69
2023/11/11 05:04:42;;;;;;;1.85;0.70;;;;;;;18.75;44.66;100180.66;5020597;28;20041;-69
2023/11/11 05:07:07;;;;;;;1.85;0.80;;;;;;;18.75;44.79;100185.94;4998859;28;20120;-69
2023/11/11 05:09:32;;;;;;;2.83;0.93;;;;;;;18.75;44.81;100185.94;5010451;28;20124;-69
2023/11/11 05:11:58;;;;;;;2.38;0.80;;;;;;;18.74;44.62;100192.19;5016780;28;20037;-69
2023/11/11 05:14:24;;;;;;;2.55;0.90;;;;;;;18.73;44.64;100193.19;5020995;28;20037;-67
2023/11/11 05:16:50;;;;;;;2.13;0.80;;;;;;;18.72;44.63;100187.06;5018630;28;20033;-68
2023/11/11 05:19:20;;;;;;;2.38;0.98;;;;;;;18.71;44.61;100190.69;5013724;28;20091;-68
2023/11/11 05:21:46;;;;;;;2.40;0.70;;;;;;;18.71;44.58;100195.13;5000404;28;20068;-67
2023/11/11 05:24:12;;;;;;;2.85;0.90;;;;;;;18.71;44.63;100201.25;5007871;28;20128;-69
2023/11/11 05:26:38;;;;;;;4.03;0.80;;;;;;;18.69;44.73;100203.19;5014261;28;20283;-69
2023/11/11 05:29:04;;;;;;;3.45;0.90;;;;;;;18.71;44.59;100201.25;5001654;28;20436;-69
2023/11/11 05:31:31;;;;;;;2.55;0.80;;;;;;;18.70;44.55;100193.47;5020072;28;20040;-69
2023/11/11 05:33:57;;;;;;;4.70;1.10;;;;;;;18.68;44.55;100210.28;5009077;28;20030;-68
2023/11/11 05:36:23;;;;;;;2.72;0.90;;;;;;;18.68;44.59;100201.53;5012819;28;20485;-69
2023/11/11 05:38:48;;;;;;;2.80;1.00;;;;;;;18.68;44.62;100197.09;5000347;28;20036;-68
2023/11/11 05:41:17;;;;;;;2.33;0.80;;;;;;;18.69;44.34;100203.19;5004663;28;20033;-69
2023/11/11 05:43:42;;;;;;;3.60;1.10;;;;;;;18.69;44.37;100200.53;5012765;28;20273;-68
2023/11/11 05:46:11;;;;;;;3.50;1.20;;;;;;;18.68;44.44;100198.91;5002158;28;20041;-68
2023/11/11 05:48:40;;;;;;;3.03;1.05;;;;;;;18.66;44.40;100204.31;5019377;28;20035;-68
2023/11/11 05:51:06;;;;;;;2.08;0.85;;;;;;;18.65;44.60;100202.66;4997493;28;20036;-68
2023/11/11 05:53:32;;;;;;;2.92;0.80;;;;;;;18.66;44.33;100203.50;5001336;28;20038;-68
2023/11/11 05:55:57;;;;;;;3.85;1.10;;;;;;;18.65;44.58;100205.28;5011839;28;20517;-68
2023/11/11 05:58:23;;;;;;;3.60;1.13;;;;;;;18.64;44.06;100213.34;5005673;28;20064;-69
2023/11/11 06:00:48;;;;;;;2.88;1.15;;;;;;;18.65;44.47;100215.03;5013736;28;20147;-68
2023/11/11 06:03:13;;;;;;;3.13;1.02;;;;;;;18.64;44.58;100210.72;5018521;28;20029;-67
2023/11/11 06:05:38;;;;;;;3.75;1.30;;;;;;;18.64;44.14;100226.53;5017253;28;20113;-68
2023/11/11 06:08:04;;;;;;;2.75;1.10;;;;;;;18.64;44.37;100224.75;5007366;28;20478;-68
2023/11/11 06:10:32;;;;;;;2.83;1.00;;;;;;;18.64;44.51;100227.41;5000354;28;20053;-68
2023/11/11 06:12:57;;;;;;;2.83;0.90;;;;;;;18.65;44.44;100231.69;5009663;28;20528;-69
2023/11/11 06:15:24;;;;;;;3.38;1.05;;;;;;;18.66;44.89;100237.81;5016289;28;20036;-69
2023/11/11 06:17:49;;;;;;;3.50;1.10;;;;;;;18.67;44.66;100235.03;5011506;28;20033;-69
2023/11/11 06:20:15;;;;;;;3.80;1.20;;;;;;;18.66;45.00;100240.44;5004854;28;20034;-69
2023/11/11 06:22:40;;;;;;;2.92;1.02;;;;;;;18.68;45.21;100252.50;5001665;28;20049;-69
2023/11/11 06:25:07;;;;;;;2.47;0.90;;;;;;;18.68;45.66;100243.78;5000339;28;20037;-69
2023/11/11 06:27:32;;;;;;;2.90;0.90;;;;;;;18.69;45.56;100255.97;5001351;28;20100;-68
2023/11/11 06:29:58;;;;;;;3.28;1.10;;;;;;;18.71;45.80;100255.81;5002545;28;20042;-69
2023/11/11 06:32:23;;;;;;;3.75;1.08;;;;;;;18.72;45.50;100260.97;5006499;28;20030;-69
2023/11/11 06:34:50;;;;;;;1.75;0.70;;;;;;;18.75;45.76;100251.94;5003332;28;20033;-68
2023/11/11 06:37:15;;;;;;;2.67;0.70;;;;;;;18.77;45.69;100255.25;5002274;28;21077;-69
2023/11/11 06:39:41;;;;;;;3.17;0.95;;;;;;;18.79;45.50;100256.78;5009506;28;20269;-68
2023/11/11 06:42:06;;;;;;;4.60;0.98;;;;;;;18.80;45.47;100257.63;5018559;28;20052;-69
2023/11/11 06:44:31;;;;;;;3.15;0.90;;;;;;;18.81;45.13;100254.84;5006237;28;20064;-69
2023/11/11 06:46:56;;;;;;;2.92;0.80;;;;;;;18.84;45.51;100261.69;5003540;28;21302;-68
2023/11/11 06:49:22;;;;;;;1.97;0.90;;;;;;;18.84;45.43;100253.75;5002270;28;20037;-68
2023/11/11 06:51:47;;;;;;;2.90;0.90;;;;;;;18.86;45.56;100259.72;5005997;28;20271;-69
2023/11/11 06:54:12;;;;;;;2.95;1.00;;;;;;;18.89;45.61;100262.06;5011399;28;20083;-68
2023/11/11 06:56:38;;;;;;;2.85;0.90;;;;;;;18.90;45.83;100260.25;5007123;28;20057;-68
2023/11/11 06:59:03;;;;;;;3.70;0.90;;;;;;;18.92;45.86;100271.53;5008954;28;20042;-68
2023/11/11 07:01:29;;;;;;;2.67;0.73;;;;;;;18.93;45.75;100270.53;5010867;28;21345;-69
2023/11/11 07:03:56;;;;;;;1.58;0.77;;;;;;;18.94;45.63;100270.38;5008418;28;20037;-68
2023/11/11 07:06:25;;;;;;;2.83;1.10;;;;;;;18.98;45.60;100273.59;5009696;28;20040;-68
2023/11/11 07:08:51;;;;;;;2.67;1.00;;;;;;;18.98;45.14;100274.41;5010717;28;20045;-67
2023/11/11 07:11:19;;;;;;;2.72;1.00;;;;;;;18.98;45.34;100282.34;5012273;28;20034;-68
2023/11/11 07:13:46;;;;;;;2.22;0.90;;;;;;;19.00;45.54;100271.63;5014289;28;20439;-67
2023/11/11 07:16:13;;;;;;;3.17;1.10;;;;;;;19.01;45.27;100284.69;5007952;28;20034;-67
2023/11/11 07:18:40;;;;;;;3.03;1.13;;;;;;;19.01;44.81;100287.34;5011045;28;20723;-68
2023/11/11 07:21:06;;;;;;;3.33;1.00;;;;;;;19.02;44.97;100286.34;5016554;28;20056;-67
2023/11/11 07:23:31;;;;;;;2.72;1.00;;;;;;;19.03;44.85;100284.56;5022468;28;20473;-67
2023/11/11 07:25:57;;;;;;;1.83;0.80;;;;;;;19.06;44.90;100294.84;5021050;28;20476;-67
2023/11/11 07:28:24;;;;;;;3.38;1.10;;;;;;;19.06;44.75;100296.63;5015422;28;20279;-69
2023/11/11 07:30:49;;;;;;;2.45;1.02;;;;;;;19.07;44.63;100299.13;5010441;28;20481;-67
2023/11/11 07:33:14;;;;;;;3.40;0.98;;;;;;;19.06;44.85;100297.47;5003007;28;20146;-67
2023/11/11 07:35:40;;;;;;;2.40;1.03;;;;;;;19.03;44.96;100303.88;5004855;28;20117;-66
2023/11/11 07:38:06;;;;;;;3.15;1.20;;;;;;;19.06;44.75;100296.63;5022244;28;20820;-66
2023/11/11 07:40:31;;;;;;;2.85;0.90;;;;;;;19.03;44.86;100305.69;5006797;28;20148;-67
2023/11/11 07:42:57;;;;;;;4.22;1.25;;;;;;;19.05;45.12;100314.28;5020126;28;20072;-68
2023/11/11 07:45:24;;;;;;;3.22;1.20;;;;;;;19.06;44.78;100313.31;5021019;28;20439;-68
2023/11/11 07:47:49;;;;;;;3.13;1.10;;;;;;;19.08;44.91;100313.19;5000858;28;20141;-68
2023/11/11 07:50:17;;;;;;;3.70;1.13;;;;;;;19.07;45.09;100319.44;5004531;28;20045;-69
2023/11/11 07:52:43;;;;;;;4.47;1.20;;;;;;;19.06;45.16;100320.38;4998854;28;20042;-67
2023/11/11 07:55:10;;;;;;;4.65;1.45;;;;;;;19.02;45.27;100312.75;5004055;28;20037;-68
2023/11/11 07:57:36;;;;;;;3.65;1.10;;;;;;;19.05;45.51;100326.66;5022183;28;20037;-70
2023/11/11 08:00:03;;;;;;;5.88;1.20;;;;;;;19.07;45.09;100327.34;5021687;28;20481;-70
2023/11/11 08:02:29;;;;;;;3.42;1.10;;;;;;;19.07;45.17;100330.00;5021551;28;20652;-68
2023/11/11 08:04:54;;;;;;;5.07;1.20;;;;;;;19.07;45.25;100338.72;5021728;28;21100;-70
2023/11/11 08:07:20;;;;;;;3.17;1.20;;;;;;;19.06;45.27;100331.81;5021812;28;20364;-70
2023/11/11 08:09:46;;;;;;;3.15;1.10;;;;;;;19.09;45.29;100341.22;5021239;28;20124;-69
2023/11/11 08:12:11;;;;;;;5.88;1.20;;;;;;;19.09;45.36;100347.38;5021817;28;20033;-70
2023/11/11 08:14:37;;;;;;;4.28;1.35;;;;;;;19.09;45.60;100346.50;5021498;28;20128;-70
2023/11/11 08:17:02;;;;;;;3.80;1.20;;;;;;;19.10;45.38;100351.66;5021491;28;20277;-69
2023/11/11 08:19:27;;;;;;;3.88;1.30;;;;;;;19.10;45.47;100351.66;5020321;28;20125;-70
2023/11/11 08:21:53;;;;;;;3.97;1.30;;;;;;;19.09;45.60;100357.94;5020250;28;20080;-70
2023/11/11 08:24:18;;;;;;;4.60;1.25;;;;;;;19.09;45.69;100362.38;5021711;28;20045;-69
2023/11/11 08:26:44;;;;;;;4.00;1.60;;;;;;;19.09;45.58;100359.72;5020800;28;20087;-69
2023/11/11 08:29:09;;;;;;;5.03;1.52;;;;;;;19.11;45.58;100366.53;5003023;28;20500;-70
2023/11/11 08:31:37;;;;;;;4.25;1.23;;;;;;;19.10;45.72;100366.69;5021211;28;20401;-69
2023/11/11 08:34:02;;;;;;;4.90;1.40;;;;;;;19.10;45.75;100364.03;5021205;28;20037;-70
2023/11/11 08:36:27;;;;;;;4.38;1.30;;;;;;;19.09;45.72;100365.84;5020887;28;20041;-68
2023/11/11 08:38:53;;;;;;;4.03;1.33;;;;;;;19.11;45.41;100374.47;5021181;28;20424;-72
2023/11/11 08:41:18;;;;;;;2.75;1.33;;;;;;;19.07;46.11;100369.59;5020974;28;20302;-70
2023/11/11 08:43:44;;;;;;;4.00;1.30;;;;;;;19.11;45.63;100377.09;5020519;28;20040;-68
2023/11/11 08:46:10;;;;;;;5.05;1.17;;;;;;;19.11;45.95;100371.00;5021407;28;20033;-69
2023/11/11 08:48:40;;;;;;;5.00;1.40;;;;;;;19.09;45.83;100371.13;5002915;28;20044;-71
2023/11/11 08:51:06;;;;;;;3.42;1.38;;;;;;;19.12;45.83;100381.44;4955642;28;20372;-71
2023/11/11 08:53:33;;;;;;;4.38;1.30;;;;;;;19.12;45.70;100377.94;5020689;28;20440;-71
2023/11/11 08:55:58;;;;;;;6.00;1.33;;;;;;;19.10;45.97;100379.88;5018570;28;20625;-71
2023/11/11 08:58:26;;;;;;;2.50;1.10;;;;;;;19.11;45.95;100384.22;5011055;28;20045;-70
2023/11/11 09:00:51;;;;;;;6.15;1.63;;;;;;;19.14;45.83;100376.00;5012552;28;20823;-68
2023/11/11 09:03:17;;;;;;;4.00;1.30;;;;;;;19.14;46.14;100374.19;5011590;28;20029;-73
2023/11/11 09:05:42;;;;;;;4.10;1.40;;;;;;;19.10;46.06;100378.06;5003794;28;20401;-73
2023/11/11 09:08:08;;;;;;;3.47;1.20;;;;;;;19.05;46.04;100377.66;5015651;28;20029;-72
2023/11/11 09:10:33;;;;;;;5.72;1.52;;;;;;;19.05;45.45;100379.50;5009837;28;20041;-70
2023/11/11 09:12:58;;;;;;;5.57;1.90;;;;;;;19.01;44.94;100384.22;5001021;28;20040;-74
2023/11/11 09:15:24;;;;;;;4.93;1.42;;;;;;;18.95;45.89;100388.25;5002327;28;20396;-73
2023/11/11 09:17:49;;;;;;;4.13;1.70;;;;;;;18.94;46.21;100389.22;5007465;28;20093;-72
2023/11/11 09:20:14;;;;;;;3.33;1.30;;;;;;;18.95;46.16;100385.63;5010568;28;20037;-67
2023/11/11 09:22:40;;;;;;;6.03;1.30;;;;;;;19.05;45.75;100388.22;5003479;28;20592;-68
2023/11/11 09:25:06;;;;;;;4.20;1.40;;;;;;;19.16;46.07;100384.59;5000671;28;20135;-67
2023/11/11 09:27:32;;;;;;;2.97;1.27;;;;;;;19.19;45.67;100389.59;4999985;28;20397;-68
2023/11/11 09:29:58;;;;;;;3.05;1.38;;;;;;;19.23;45.46;100390.16;5019762;28;20505;-68
2023/11/11 09:32:23;;;;;;;3.65;1.10;;;;;;;19.24;45.47;100391.81;5014563;28;20079;-68
2023/11/11 09:34:49;;;;;;;4.72;1.30;;;;;;;19.25;45.61;100390.81;5015556;28;20045;-73
2023/11/11 09:37:14;;;;;;;3.65;1.42;;;;;;;19.23;45.06;100393.59;5006147;28;20439;-69
2023/11/11 09:39:39;;;;;;;3.53;1.20;;;;;;;19.24;45.23;100395.28;5011900;28;20452;-68
2023/11/11 09:42:05;;;;;;;5.97;1.40;;;;;;;19.22;45.44;100386.69;5001102;28;20481;-69
2023/11/11 09:44:32;;;;;;;3.00;1.13;;;;;;;19.23;45.32;100390.97;5012515;28;20030;-70
2023/11/11 09:46:58;;;;;;;3.47;1.23;;;;;;;19.25;45.28;100396.09;5010046;28;20084;-70
2023/11/11 09:49:27;;;;;;;5.22;1.45;;;;;;;19.24;45.20;100392.66;5010780;28;20091;-70
2023/11/11 09:51:54;;;;;;;4.88;1.30;;;;;;;19.25;45.22;100393.47;4998480;28;20481;-70
2023/11/11 09:54:19;;;;;;;4.47;1.40;;;;;;;19.23;45.70;100396.25;5007013;28;20030;-71
2023/11/11 09:56:45;;;;;;;4.97;1.30;;;;;;;19.26;45.54;100389.88;5015180;28;20123;-68
2023/11/11 09:59:11;;;;;;;4.65;1.40;;;;;;;19.26;45.35;100400.44;5019880;28;20037;-70
2023/11/11 10:01:42;;;;;;;4.10;1.27;;;;;;;19.24;45.47;100397.94;5019430;28;20075;-71
2023/11/11 10:04:09;;;;;;;4.07;1.20;;;;;;;19.27;45.55;100407.38;5019971;28;20065;-69
2023/11/11 10:06:36;;;;;;;4.50;1.30;;;;;;;19.26;45.41;100406.53;5020031;28;20036;-69
2023/11/11 10:09:04;;;;;;;5.85;1.33;;;;;;;19.26;45.58;100408.34;5018121;28;20029;-69
2023/11/11 10:11:29;;;;;;;2.92;1.02;;;;;;;19.26;45.42;100411.00;5019291;28;20029;-69
2023/11/11 10:13:55;;;;;;;3.38;1.50;;;;;;;19.25;45.44;100414.59;5016747;28;20036;-68
2023/11/11 10:16:25;;;;;;;4.82;1.35;;;;;;;19.25;45.50;100414.59;5017809;28;20429;-68
2023/11/11 10:18:57;;;;;;;2.55;1.00;;;;;;;19.23;45.69;100424.50;5018718;28;20521;-70
2023/11/11 10:21:22;;;;;;;3.75;1.20;;;;;;;19.24;45.42;100419.06;5019288;28;20076;-72
2023/11/11 10:23:48;;;;;;;2.67;1.00;;;;;;;19.23;45.77;100414.75;5019633;28;20073;-69
2023/11/11 10:26:17;;;;;;;4.93;1.38;;;;;;;19.22;45.90;100415.75;5001704;28;20505;-70
2023/11/11 10:28:50;;;;;;;4.32;1.17;;;;;;;19.21;45.99;100417.53;5018562;28;20083;-70
2023/11/11 10:31:18;;;;;;;4.30;1.60;;;;;;;19.21;45.92;100419.34;5019766;28;20033;-69
2023/11/11 10:33:44;;;;;;;2.95;1.20;;;;;;;19.24;45.97;100421.69;5001943;28;20054;-69
2023/11/11 10:36:10;;;;;;;3.70;1.08;;;;;;;19.25;45.63;100419.88;5018867;28;20029;-68
2023/11/11 10:38:35;;;;;;;2.63;0.98;;;;;;;19.21;45.77;100417.53;5019521;28;20474;-69
2023/11/11 10:41:01;;;;;;;5.00;1.27;;;;;;;19.21;45.82;100419.34;5001109;28;20041;-69
2023/11/11 10:43:26;;;;;;;3.65;1.25;;;;;;;19.23;45.54;100421.84;5018574;28;20045;-69
2023/11/11 10:45:53;;;;;;;3.08;1.00;;;;;;;19.23;45.60;100417.38;5018758;28;20108;-68
2023/11/11 10:48:19;;;;;;;3.08;1.10;;;;;;;19.24;45.54;100423.53;5019925;28;20114;-68
2023/11/11 10:50:45;;;;;;;3.50;1.27;;;;;;;19.25;45.74;100428.66;5021615;28;20033;-69
2023/11/11 10:53:13;;;;;;;5.72;1.10;;;;;;;19.23;45.43;100425.31;5013173;28;20045;-68
2023/11/11 10:55:41;;;;;;;4.72;1.25;;;;;;;19.23;45.62;100422.66;5008522;28;20046;-70
2023/11/11 10:58:09;;;;;;;5.78;1.40;;;;;;;19.21;45.82;100422.81;5000757;28;20337;-72
2023/11/11 11:00:36;;;;;;;3.00;1.15;;;;;;;19.20;45.96;100420.31;4998564;28;20037;-72
2023/11/11 11:03:02;;;;;;;3.83;1.27;;;;;;;19.21;45.78;100421.97;4983546;28;20065;-71
2023/11/11 11:05:31;;;;;;;5.13;1.33;;;;;;;19.20;45.78;100425.59;5001718;28;20118;-69
2023/11/11 11:08:26;;;;;;;3.78;1.00;;;;;;;19.16;45.99;100422.41;5000038;28;20469;-69
2023/11/11 11:11:07;;;;;;;;;;;;;;;19.19;45.88;100421.31;4974388;28;20348;-71
2023/11/11 11:13:35;;;;;;;3.55;1.17;;;;;;;19.15;46.15;100422.56;4999974;28;19960;-69
2023/11/11 11:16:01;;;;;;;6.20;1.40;;;;;;;19.16;45.90;100426.88;5001354;28;20167;-72
2023/11/11 11:18:27;;;;;;;3.17;1.00;;;;;;;19.18;45.90;100419.63;4984544;28;20072;-72
2023/11/11 11:20:54;;;;;;;2.45;1.10;;;;;;;19.24;46.05;100428.81;4999454;28;20655;-73